MAPA DE AEROPUERTO

INFORMACIÓN METAR y TAF

METAR FOR LEAM
ADDS - METARS form results

(0914 UTC 03 March 2021)
Data provider http://aviationweather.gov/metar/data/
 
METAR text: LEAM 030900Z 08016KT 9999 FEW040 16/09 Q1027
Conditions at: LEAM (ALMERIA AIRPORT , ES) observed 0900 UTC 03 March 2021
Temperature: 16.0°C (61°F)
Dewpoint: 9.0°C (48°F) [RH = 63%]
Pressure (altimeter): 30.32 inches Hg (1027.0 mb)
Winds: from the E (80 degrees) at 18 MPH (16 knots; 8.2 m/s)
Visibility: 6 or more miles (10+ km)
Ceiling: at least 12,000 feet AGL
Clouds: few clouds at 4000 feet AGL
Weather: no significant weather observed at this time

METAR text: LEAM 030830Z 07015KT CAVOK 16/10 Q1027
Conditions at: LEAM (ALMERIA AIRPORT , ES) observed 0830 UTC 03 March 2021
Temperature: 16.0°C (61°F)
Dewpoint: 10.0°C (50°F) [RH = 68%]
Pressure (altimeter): 30.32 inches Hg (1027.0 mb)
Winds: from the ENE (70 degrees) at 17 MPH (15 knots; 7.7 m/s)
Visibility: 6 or more miles (10+ km)
Ceiling: ceiling and visibility are OK
Clouds: unknown
Weather: no significant weather observed at this time

Forecast for: LEAM (ALMERIA AIRPORT , ES)
Text: TAF LEAM 030800Z 0309/0409 06012KT 9999 FEW035 TX20/0315Z TN11/0406Z
Forecast period: 0900 to 2300 UTC 03 March 2021
Forecast type: FROM: standard forecast or significant change
Winds: from the ENE (60 degrees) at 14 MPH (12 knots; 6.2 m/s)
Visibility: 6 or more miles (10+ km)
Ceiling: at least 12,000 feet AGL
Clouds: few clouds at 3500 feet AGL
Weather: no significant weather forecast for this period
Text: PROB40
Forecast period: 1100 to 1700 UTC 03 March 2021
Forecast type: TEMPORARY: The following changes expected for less than half the time period
Winds: from the ENE (70 degrees) at 18 MPH (16 knots; 8.2 m/s)
gusting to 30 MPH (26 knots; 13.4 m/s)
Visibility: missing
Ceiling: unknown
Clouds: missing
Weather: no significant weather forecast for this period
Text: TEMPO 0311/0317 07016G26KT
Forecast period: 2300 UTC 03 March 2021 to 0900 UTC 04 March 2021
Forecast type: BECOMING: Conditions expected to become as follows by 0100 UTC 04 March 2021
Winds: from the N (360 degrees) at 9 MPH (8 knots; 4.1 m/s)
Visibility: 6 or more miles (10+ km)
Ceiling: at least 12,000 feet AGL
Clouds: few clouds at 3500 feet AGL
Weather: no significant weather forecast for this period